createdAt,value
2022-09-22T00:01:23.723Z,7.07
2022-09-22T00:03:54.248Z,5.97
2022-09-22T00:06:27.213Z,6.22
2022-09-22T00:08:57.837Z,7.20
2022-09-22T00:11:29.149Z,8.38
2022-09-22T00:13:59.928Z,8.40
2022-09-22T00:16:31.785Z,6.60
2022-09-22T00:18:59.652Z,10.95
2022-09-22T00:21:28.078Z,11.50
2022-09-22T00:23:55.462Z,7.22
2022-09-22T00:26:24.152Z,10.23
2022-09-22T00:28:52.944Z,9.32
2022-09-22T00:31:22.980Z,7.72
2022-09-22T00:33:51.820Z,7.25
2022-09-22T00:36:23.092Z,9.27
2022-09-22T00:38:51.639Z,7.35
2022-09-22T00:41:23.357Z,8.43
2022-09-22T00:44:12.685Z,7.05
2022-09-22T00:46:42.479Z,6.65
2022-09-22T00:49:11.843Z,6.68
2022-09-22T00:51:43.443Z,5.15
2022-09-22T00:54:14.433Z,5.68
2022-09-22T00:57:06.219Z,6.57
2022-09-22T00:59:34.117Z,5.88
2022-09-22T01:02:01.621Z,8.73
2022-09-22T01:04:30.011Z,5.20
2022-09-22T01:06:58.967Z,8.65
2022-09-22T01:09:27.269Z,9.55
2022-09-22T01:11:54.696Z,5.00
2022-09-22T01:14:49.842Z,6.72
2022-09-22T01:17:37.425Z,6.38
2022-09-22T01:20:15.343Z,7.57
2022-09-22T01:22:57.023Z,6.95
2022-09-22T01:25:33.666Z,4.90
2022-09-22T01:28:37.900Z,7.05
2022-09-22T01:31:28.330Z,4.53
2022-09-22T01:34:16.364Z,4.43
2022-09-22T01:36:55.505Z,3.80
2022-09-22T01:39:41.926Z,5.95
2022-09-22T01:42:44.507Z,4.00
2022-09-22T01:45:19.517Z,6.90
2022-09-22T01:48:25.499Z,5.45
2022-09-22T01:51:08.626Z,6.90
2022-09-22T01:53:43.814Z,4.20
2022-09-22T01:56:15.060Z,5.28
2022-09-22T01:58:54.165Z,4.07
2022-09-22T02:01:32.149Z,5.60
2022-09-22T02:04:29.364Z,5.40
2022-09-22T02:07:02.068Z,4.40
2022-09-22T02:09:32.984Z,6.85
2022-09-22T02:12:01.362Z,4.93
2022-09-22T02:14:29.379Z,6.35
2022-09-22T02:16:57.317Z,4.35
2022-09-22T02:19:33.981Z,4.43
2022-09-22T02:22:01.663Z,4.70
2022-09-22T02:24:30.530Z,5.13
2022-09-22T02:27:00.557Z,6.95
2022-09-22T02:29:32.027Z,5.15
2022-09-22T02:32:02.448Z,7.85
2022-09-22T02:34:29.963Z,4.90
2022-09-22T02:37:17.983Z,5.72
2022-09-22T02:39:56.565Z,8.15
2022-09-22T02:42:38.846Z,6.75
2022-09-22T02:45:15.449Z,6.72
2022-09-22T02:47:57.330Z,6.35
2022-09-22T02:50:27.785Z,8.02
2022-09-22T02:53:05.118Z,4.78
2022-09-22T02:55:32.606Z,4.38
2022-09-22T02:57:59.977Z,5.45
2022-09-22T03:00:27.662Z,5.07
2022-09-22T03:02:54.989Z,6.13
2022-09-22T03:05:22.295Z,5.97
2022-09-22T03:07:49.680Z,6.53
2022-09-22T03:10:17.255Z,5.35
2022-09-22T03:13:09.161Z,7.13
2022-09-22T03:15:32.347Z,5.65
2022-09-22T03:17:59.916Z,6.45
2022-09-22T03:20:27.313Z,5.88
2022-09-22T03:22:54.664Z,5.30
2022-09-22T03:25:22.091Z,7.03
2022-09-22T03:27:49.602Z,7.60
2022-09-22T03:30:17.149Z,7.50
2022-09-22T03:32:44.526Z,8.88
2022-09-22T03:35:11.907Z,6.95
2022-09-22T03:37:39.266Z,8.30
2022-09-22T03:40:07.137Z,7.88
2022-09-22T03:42:35.478Z,10.10
2022-09-22T03:45:05.967Z,10.23
2022-09-22T03:47:33.414Z,15.68
2022-09-22T03:50:00.825Z,14.00
2022-09-22T03:52:28.230Z,15.00
2022-09-22T03:54:55.693Z,15.65
2022-09-22T03:57:23.214Z,13.85
2022-09-22T03:59:50.659Z,13.82
2022-09-22T04:02:18.557Z,13.57
2022-09-22T04:04:46.075Z,12.05
2022-09-22T04:07:13.530Z,11.85
2022-09-22T04:09:42.055Z,11.75
2022-09-22T04:12:09.949Z,12.02
2022-09-22T04:14:37.304Z,13.23
2022-09-22T04:17:06.039Z,19.13
2022-09-22T04:19:36.751Z,13.57
2022-09-22T04:22:04.606Z,11.60
2022-09-22T04:24:31.984Z,10.82
2022-09-22T04:27:18.978Z,10.65
2022-09-22T04:29:46.706Z,16.73
2022-09-22T04:32:14.672Z,19.92
2022-09-22T04:34:43.059Z,15.02
2022-09-22T04:37:11.561Z,12.43
2022-09-22T04:39:39.066Z,21.20
2022-09-22T04:42:08.914Z,23.40
2022-09-22T04:44:36.408Z,18.15
2022-09-22T04:47:04.657Z,20.60
2022-09-22T04:49:31.978Z,14.65
2022-09-22T04:51:59.448Z,11.55
2022-09-22T04:54:26.896Z,13.48
2022-09-22T04:56:54.237Z,13.27
2022-09-22T04:59:21.641Z,11.68
2022-09-22T05:01:49.083Z,11.02
2022-09-22T05:04:16.480Z,10.40
2022-09-22T05:06:44.061Z,12.98
2022-09-22T05:09:11.463Z,12.48
2022-09-22T05:11:39.687Z,13.45
2022-09-22T05:14:07.082Z,17.38
2022-09-22T05:16:35.350Z,15.80
2022-09-22T05:19:02.871Z,12.00
2022-09-22T05:21:30.260Z,11.35
2022-09-22T05:23:57.673Z,9.65
2022-09-22T05:26:25.440Z,12.90
2022-09-22T05:28:52.908Z,10.23
2022-09-22T05:31:20.371Z,11.80
2022-09-22T05:33:47.761Z,11.25
2022-09-22T05:36:15.094Z,9.90
2022-09-22T05:38:42.729Z,9.93
2022-09-22T05:41:10.111Z,7.80
2022-09-22T05:43:37.433Z,8.73
2022-09-22T05:46:04.983Z,7.50
2022-09-22T05:48:32.394Z,7.97
2022-09-22T05:50:59.733Z,10.65
2022-09-22T05:53:27.759Z,11.65
2022-09-22T05:55:57.129Z,8.88
2022-09-22T05:58:24.442Z,11.63
2022-09-22T06:00:51.841Z,9.35
2022-09-22T06:03:19.519Z,9.63
2022-09-22T06:05:46.906Z,8.55
2022-09-22T06:08:14.342Z,8.00
2022-09-22T06:10:42.234Z,9.63
2022-09-22T06:13:11.271Z,11.18
2022-09-22T06:15:39.599Z,8.35
2022-09-22T06:18:13.208Z,11.02
2022-09-22T06:20:44.571Z,9.05
2022-09-22T06:23:15.556Z,8.07
2022-09-22T06:25:44.231Z,10.20
2022-09-22T06:28:14.660Z,9.93
2022-09-22T06:30:42.685Z,12.40
2022-09-22T06:33:11.479Z,8.75
2022-09-22T06:35:43.055Z,6.93
2022-09-22T06:38:15.092Z,8.55
2022-09-22T06:40:43.519Z,8.35
2022-09-22T06:43:20.527Z,10.05
2022-09-22T06:45:48.283Z,11.43
2022-09-22T06:48:15.718Z,11.45
2022-09-22T06:50:49.082Z,10.98
2022-09-22T06:53:16.474Z,6.63
2022-09-22T06:55:44.129Z,9.38
2022-09-22T06:58:12.737Z,11.55
2022-09-22T07:00:43.041Z,13.23
2022-09-22T07:03:20.831Z,12.07
2022-09-22T07:06:03.405Z,11.57
2022-09-22T07:08:33.784Z,9.27
2022-09-22T07:11:04.104Z,12.50
2022-09-22T07:13:32.787Z,8.17
2022-09-22T07:16:07.934Z,11.73
2022-09-22T07:18:36.342Z,7.15
2022-09-22T07:21:18.202Z,7.85
2022-09-22T07:23:45.522Z,9.65
2022-09-22T07:26:16.018Z,6.43
2022-09-22T07:28:46.949Z,7.45
2022-09-22T07:31:16.552Z,5.13
2022-09-22T07:33:45.945Z,7.30
2022-09-22T07:36:19.658Z,7.05
2022-09-22T07:38:49.931Z,6.28
2022-09-22T07:41:20.488Z,9.23
2022-09-22T07:43:51.349Z,5.90
2022-09-22T07:46:19.367Z,5.50
2022-09-22T07:48:49.924Z,7.38
2022-09-22T07:51:20.841Z,7.72
2022-09-22T08:58:29.674Z,8.00
2022-09-22T09:01:35.417Z,6.07
2022-09-22T09:04:20.890Z,5.93
2022-09-22T09:06:56.037Z,5.15
2022-09-22T09:09:23.425Z,4.90
2022-09-22T09:12:11.256Z,4.85
2022-09-22T09:14:51.592Z,6.22
2022-09-22T09:17:24.398Z,4.53
2022-09-22T09:20:03.777Z,5.30
2022-09-22T09:22:55.960Z,4.30
2022-09-22T09:25:36.852Z,4.20
2022-09-22T09:28:07.493Z,5.50
2022-09-22T09:30:49.585Z,5.88
2022-09-22T09:33:41.308Z,3.85
2022-09-22T09:38:55.568Z,3.53
2022-09-22T09:41:28.369Z,3.63
2022-09-22T09:43:56.330Z,5.72
2022-09-22T09:46:40.296Z,5.05
2022-09-22T09:49:19.419Z,3.38
2022-09-22T09:51:55.814Z,5.53
2022-09-22T09:54:23.720Z,4.55
2022-09-22T09:57:09.882Z,4.15
2022-09-22T10:00:01.396Z,4.10
2022-09-22T10:02:32.501Z,5.15
2022-09-22T10:07:42.176Z,3.90
2022-09-22T10:10:37.276Z,3.70
2022-09-22T10:13:04.730Z,4.38
2022-09-22T10:15:37.491Z,3.55
2022-09-22T10:18:26.166Z,4.30
2022-09-22T10:21:03.803Z,4.47
2022-09-22T10:23:33.084Z,4.10
2022-09-22T10:26:32.324Z,3.85
2022-09-22T10:29:18.966Z,4.47
2022-09-22T10:32:16.970Z,3.50
2022-09-22T10:34:51.900Z,2.22
2022-09-22T10:37:29.897Z,3.08
2022-09-22T10:40:03.523Z,3.03
2022-09-22T10:42:45.532Z,2.42
2022-09-22T10:45:15.540Z,2.45
2022-09-22T10:48:00.366Z,3.50
2022-09-22T10:50:58.944Z,4.05
2022-09-22T10:54:06.392Z,3.38
2022-09-22T10:56:37.141Z,2.60
2022-09-22T10:59:44.273Z,2.85
2022-09-22T11:02:18.470Z,2.35
2022-09-22T11:04:54.881Z,4.65
2022-09-22T11:07:47.075Z,3.95
2022-09-22T11:10:41.752Z,5.15
2022-09-22T11:13:17.025Z,3.60
2022-09-22T11:15:59.411Z,5.57
2022-09-22T11:18:55.997Z,4.97
2022-09-22T11:21:53.880Z,2.95
2022-09-22T11:30:44.777Z,2.65
2022-09-22T11:33:48.138Z,2.97
2022-09-22T12:16:11.429Z,2.08
2022-09-22T12:18:42.474Z,3.70
2022-09-22T12:23:51.287Z,3.63
2022-09-22T12:26:31.410Z,4.25
2022-09-22T12:29:01.526Z,4.40
2022-09-22T12:31:42.593Z,4.18
2022-09-22T12:36:51.297Z,2.97
2022-09-22T12:39:31.125Z,2.00
2022-09-22T12:42:04.873Z,1.80
2022-09-22T12:44:37.395Z,2.35
2022-09-22T12:47:34.594Z,3.38
2022-09-22T12:50:07.530Z,3.65
2022-09-22T12:52:40.790Z,2.60
2022-09-22T12:55:20.027Z,2.65
2022-09-22T12:57:50.509Z,2.60
2022-09-22T13:00:33.389Z,3.58
2022-09-22T13:03:01.873Z,3.67
2022-09-22T13:05:29.185Z,5.35
2022-09-22T13:07:56.551Z,6.63
2022-09-22T13:10:23.925Z,2.83
2022-09-22T13:13:06.254Z,2.40
2022-09-22T13:15:45.937Z,2.97
2022-09-22T13:18:46.582Z,1.50
2022-09-22T13:21:13.853Z,2.53
2022-09-22T13:23:59.050Z,1.80
2022-09-22T13:26:40.935Z,2.20
2022-09-22T13:29:20.401Z,2.67
2022-09-22T13:31:51.278Z,3.67
2022-09-22T13:34:30.231Z,4.30
2022-09-22T13:36:57.811Z,2.25
2022-09-22T13:39:28.619Z,3.00
2022-09-22T13:42:04.158Z,3.17
2022-09-22T13:44:34.496Z,3.70
2022-09-22T13:47:07.123Z,2.03
2022-09-22T13:49:44.905Z,1.90
2022-09-22T13:52:28.170Z,2.08
2022-09-22T13:55:05.323Z,2.75
2022-09-22T13:57:37.761Z,1.50
2022-09-22T14:00:08.773Z,2.70
2022-09-22T14:05:08.269Z,2.63
2022-09-22T14:07:55.305Z,3.30
2022-09-22T14:10:28.028Z,2.67
2022-09-22T14:12:55.887Z,4.45
2022-09-22T14:15:38.115Z,8.13
2022-09-22T14:18:16.958Z,7.13
2022-09-22T14:20:45.432Z,2.15
2022-09-22T14:23:29.483Z,1.27
2022-09-22T14:25:58.714Z,2.78
2022-09-22T14:28:29.911Z,2.22
2022-09-22T14:30:57.355Z,3.33
2022-09-22T14:33:30.352Z,3.35
2022-09-22T14:36:08.373Z,2.38
2022-09-22T14:38:43.069Z,6.85
2022-09-22T14:41:22.472Z,5.45
2022-09-22T14:43:50.962Z,7.30
2022-09-22T14:46:23.105Z,3.58
2022-09-22T14:48:51.131Z,3.60
2022-09-22T14:51:22.008Z,2.85
2022-09-22T14:53:57.791Z,2.55
2022-09-22T14:56:28.984Z,4.60
2022-09-22T15:02:13.353Z,2.30
2022-09-22T15:04:51.234Z,2.75
2022-09-22T15:07:29.281Z,1.55
2022-09-22T15:10:02.845Z,1.85
2022-09-22T15:12:46.229Z,2.00
2022-09-22T15:15:19.324Z,2.25
2022-09-22T15:18:10.209Z,3.45
2022-09-22T15:20:47.194Z,4.93
2022-09-22T15:23:42.019Z,3.97
2022-09-22T15:26:19.813Z,3.35
2022-09-22T15:28:51.087Z,2.65
2022-09-22T15:31:25.450Z,4.53
2022-09-22T15:33:53.638Z,4.28
2022-09-22T15:36:22.778Z,3.90
2022-09-22T15:38:50.392Z,2.90
2022-09-22T15:41:17.725Z,2.97
2022-09-22T15:43:45.332Z,5.90
2022-09-22T15:46:34.043Z,3.60
2022-09-22T15:49:26.636Z,4.07
2022-09-22T15:51:57.587Z,4.38
2022-09-22T15:54:26.408Z,4.90
2022-09-22T15:56:55.951Z,5.97
2022-09-22T15:59:27.043Z,5.05
2022-09-22T16:04:31.633Z,4.80
2022-09-22T16:07:04.071Z,4.97
2022-09-22T16:09:32.037Z,4.72
2022-09-22T16:11:59.772Z,13.70
2022-09-22T16:14:27.181Z,25.00
2022-09-22T16:16:54.620Z,27.65
2022-09-22T16:19:21.969Z,19.73
2022-09-22T16:21:54.359Z,32.95
2022-09-22T16:24:22.706Z,18.88
2022-09-22T16:26:51.912Z,8.50
2022-09-22T16:29:19.572Z,5.80
2022-09-22T16:31:47.038Z,7.15
2022-09-22T16:34:14.494Z,7.55
2022-09-22T16:36:41.942Z,15.77
2022-09-22T16:39:09.409Z,13.88
2022-09-22T16:41:37.124Z,11.48
2022-09-22T16:44:04.986Z,19.95
2022-09-22T16:46:37.951Z,11.15
2022-09-22T16:49:11.788Z,10.57
2022-09-22T16:51:44.399Z,7.68
2022-09-22T16:54:13.947Z,13.88
2022-09-22T16:56:44.225Z,10.88
2022-09-22T16:59:15.290Z,9.40
2022-09-22T17:04:13.239Z,20.52
2022-09-22T17:06:41.823Z,14.25
2022-09-22T17:09:10.573Z,18.42
2022-09-22T17:11:40.311Z,14.63
2022-09-22T17:14:12.551Z,12.13
2022-09-22T17:16:49.880Z,8.75
2022-09-22T17:19:20.072Z,8.15
2022-09-22T17:21:49.347Z,8.43
2022-09-22T17:24:17.022Z,6.47
2022-09-22T17:26:47.918Z,13.38
2022-09-22T17:29:17.694Z,11.20
2022-09-22T17:31:48.118Z,13.27
2022-09-22T17:34:16.096Z,7.60
2022-09-22T17:36:43.492Z,6.20
2022-09-22T17:39:10.931Z,7.25
2022-09-22T17:41:45.570Z,7.03
2022-09-22T17:44:14.776Z,10.98
2022-09-22T17:47:02.092Z,5.50
2022-09-22T17:49:47.855Z,4.57
2022-09-22T17:52:28.429Z,4.65
2022-09-22T17:55:11.003Z,5.90
2022-09-22T17:57:45.717Z,6.47
2022-09-22T18:00:16.653Z,3.75
2022-09-22T18:02:44.978Z,5.35
2022-09-22T18:05:14.653Z,5.60
2022-09-22T18:07:42.616Z,7.68
2022-09-22T18:10:12.279Z,4.60
2022-09-22T18:12:40.424Z,5.07
2022-09-22T18:15:12.821Z,3.70
2022-09-22T18:17:42.011Z,3.88
2022-09-22T18:20:15.001Z,6.05
2022-09-22T18:22:47.979Z,6.32
2022-09-22T18:25:19.406Z,9.35
2022-09-22T18:27:48.636Z,11.50
2022-09-22T18:30:18.517Z,9.95
2022-09-22T18:32:46.873Z,5.10
2022-09-22T18:35:14.569Z,6.70
2022-09-22T18:37:42.138Z,7.22
2022-09-22T18:40:12.428Z,5.18
2022-09-22T18:42:41.593Z,5.20
2022-09-22T18:45:11.144Z,5.80
2022-09-22T18:47:41.404Z,3.97
2022-09-22T18:50:09.682Z,5.70
2022-09-22T18:52:37.486Z,3.70
2022-09-22T18:55:09.404Z,9.95
2022-09-22T18:57:36.796Z,5.68
2022-09-22T19:00:04.664Z,10.98
2022-09-22T19:02:32.209Z,7.10
2022-09-22T19:04:59.614Z,4.32
2022-09-22T19:07:42.432Z,6.30
2022-09-22T19:10:12.929Z,4.63
2022-09-22T19:12:40.712Z,4.27
2022-09-22T19:15:13.705Z,4.40
2022-09-22T19:17:44.287Z,5.50
2022-09-22T19:20:22.595Z,4.43
2022-09-22T19:22:50.767Z,5.60
2022-09-22T19:25:21.953Z,4.20
2022-09-22T19:27:53.086Z,5.10
2022-09-22T19:30:24.021Z,5.30
2022-09-22T19:32:54.735Z,4.07
2022-09-22T19:35:22.287Z,4.20
2022-09-22T19:37:51.997Z,6.38
2022-09-22T19:40:24.500Z,7.15
2022-09-22T19:42:53.557Z,6.03
2022-09-22T19:45:21.847Z,6.13
2022-09-22T19:47:49.242Z,6.78
2022-09-22T19:50:17.199Z,5.72
2022-09-22T19:52:44.637Z,5.28
2022-09-22T19:55:12.070Z,6.28
2022-09-22T19:57:41.769Z,5.85
2022-09-22T20:00:17.783Z,8.02
2022-09-22T20:02:45.697Z,5.90
2022-09-22T20:05:21.709Z,5.72
2022-09-22T20:07:49.702Z,8.35
2022-09-22T20:10:19.366Z,6.55
2022-09-22T20:12:46.799Z,8.60
2022-09-22T20:15:17.532Z,5.80
2022-09-22T20:17:46.613Z,7.97
2022-09-22T20:20:19.837Z,11.90
2022-09-22T20:22:49.988Z,6.93
2022-09-22T20:25:25.327Z,8.68
2022-09-22T20:27:52.748Z,9.15
2022-09-22T20:30:20.131Z,7.82
2022-09-22T20:32:47.722Z,11.70
2022-09-22T20:35:18.140Z,8.55
2022-09-22T20:37:45.616Z,7.57
2022-09-22T20:40:17.327Z,9.18
2022-09-22T20:42:45.840Z,8.52
2022-09-22T20:45:13.358Z,10.00
2022-09-22T20:47:40.859Z,11.50
2022-09-22T20:50:10.101Z,12.13
2022-09-22T20:52:39.233Z,9.90
2022-09-22T20:55:07.826Z,10.55
2022-09-22T20:57:35.215Z,8.38
2022-09-22T21:00:03.107Z,10.05
2022-09-22T21:02:31.293Z,12.25
2022-09-22T21:04:58.753Z,10.38
2022-09-22T21:07:26.189Z,13.05
2022-09-22T21:10:12.154Z,8.52
2022-09-22T21:12:40.519Z,11.73
2022-09-22T21:15:08.302Z,12.73
2022-09-22T21:17:35.719Z,9.77
2022-09-22T21:20:03.633Z,10.43
2022-09-22T21:22:31.242Z,11.23
2022-09-22T21:24:58.609Z,9.82
2022-09-22T21:27:26.024Z,8.18
2022-09-22T21:29:53.552Z,7.85
2022-09-22T21:32:21.040Z,8.23
2022-09-22T21:34:48.489Z,6.93
2022-09-22T21:37:15.923Z,6.03
2022-09-22T21:39:43.299Z,7.18
2022-09-22T21:42:10.598Z,7.85
2022-09-22T21:44:37.979Z,7.30
2022-09-22T21:47:05.402Z,6.07
2022-09-22T21:49:33.145Z,7.22
2022-09-22T21:52:01.233Z,8.93
2022-09-22T21:54:28.625Z,6.60
2022-09-22T21:56:56.779Z,8.35
2022-09-22T21:59:24.189Z,7.05
2022-09-22T22:01:51.720Z,6.20
2022-09-22T22:04:19.240Z,6.80
2022-09-22T22:06:47.001Z,8.52
2022-09-22T22:09:17.185Z,6.20
2022-09-22T22:11:50.349Z,6.43
2022-09-22T22:14:20.022Z,5.65
2022-09-22T22:16:50.539Z,5.65
2022-09-22T22:19:20.399Z,7.32
2022-09-22T22:21:50.906Z,7.35
2022-09-22T22:24:23.987Z,7.85
2022-09-22T22:26:57.331Z,5.40
2022-09-22T22:29:26.878Z,6.70
2022-09-22T22:31:54.555Z,5.80
2022-09-22T22:34:25.654Z,5.78
2022-09-22T22:39:21.515Z,9.02
2022-09-22T22:41:48.964Z,8.18
2022-09-22T22:44:17.995Z,6.53
2022-09-22T22:46:46.055Z,6.88
2022-09-22T22:49:13.640Z,6.45
2022-09-22T22:51:43.491Z,8.27
2022-09-22T22:54:12.212Z,7.85
2022-09-22T22:56:42.511Z,9.00
2022-09-22T22:59:11.394Z,7.78
2022-09-22T23:01:40.548Z,7.90
2022-09-22T23:04:10.090Z,7.30
2022-09-22T23:06:40.031Z,7.85
2022-09-22T23:09:11.220Z,10.07
2022-09-22T23:11:40.096Z,8.38
2022-09-22T23:14:11.486Z,9.10
2022-09-22T23:16:41.631Z,7.85
2022-09-22T23:19:12.227Z,7.88
2022-09-22T23:21:40.448Z,9.98
2022-09-22T23:24:08.764Z,11.73
2022-09-22T23:26:37.515Z,9.18
2022-09-22T23:29:06.164Z,10.63
2022-09-22T23:31:33.693Z,8.68
2022-09-22T23:34:01.354Z,8.45
2022-09-22T23:36:29.914Z,9.63
2022-09-22T23:39:04.147Z,7.97
2022-09-22T23:41:33.845Z,10.15
2022-09-22T23:44:03.016Z,8.30
2022-09-22T23:46:31.425Z,9.07
2022-09-22T23:49:00.357Z,7.50
2022-09-22T23:51:28.421Z,9.40
2022-09-22T23:53:56.408Z,9.13
2022-09-22T23:56:24.729Z,8.30
2022-09-22T23:58:52.445Z,7.97
